sensor_id;sensor_type;location;lat;lon;timestamp;P1;durP1;ratioP1;P2;durP2;ratioP2
15102;SDS011;7652;53.584;9.998;2023-02-08T00:01:24;16.93;;;9.97;;
15102;SDS011;7652;53.584;9.998;2023-02-08T00:04:27;15.67;;;10.47;;
15102;SDS011;7652;53.584;9.998;2023-02-08T00:07:30;15.20;;;9.80;;
15102;SDS011;7652;53.584;9.998;2023-02-08T00:10:33;15.33;;;10.23;;
15102;SDS011;7652;53.584;9.998;2023-02-08T00:13:37;17.70;;;9.70;;
15102;SDS011;7652;53.584;9.998;2023-02-08T00:16:44;16.43;;;10.20;;
15102;SDS011;7652;53.584;9.998;2023-02-08T00:19:47;14.43;;;9.30;;
15102;SDS011;7652;53.584;9.998;2023-02-08T00:22:49;15.50;;;9.70;;
15102;SDS011;7652;53.584;9.998;2023-02-08T00:25:53;16.40;;;10.37;;
15102;SDS011;7652;53.584;9.998;2023-02-08T00:28:56;17.37;;;10.40;;
15102;SDS011;7652;53.584;9.998;2023-02-08T00:32:01;16.17;;;9.73;;
15102;SDS011;7652;53.584;9.998;2023-02-08T00:35:04;18.93;;;10.77;;
15102;SDS011;7652;53.584;9.998;2023-02-08T00:38:07;16.23;;;10.50;;
15102;SDS011;7652;53.584;9.998;2023-02-08T00:41:10;15.60;;;9.73;;
15102;SDS011;7652;53.584;9.998;2023-02-08T00:44:13;15.33;;;10.13;;
15102;SDS011;7652;53.584;9.998;2023-02-08T00:47:18;19.73;;;10.63;;
15102;SDS011;7652;53.584;9.998;2023-02-08T00:50:21;16.13;;;9.80;;
15102;SDS011;7652;53.584;9.998;2023-02-08T00:53:24;14.07;;;9.83;;
15102;SDS011;7652;53.584;9.998;2023-02-08T00:56:26;15.37;;;9.73;;
15102;SDS011;7652;53.584;9.998;2023-02-08T00:59:29;15.63;;;9.50;;
15102;SDS011;7652;53.584;9.998;2023-02-08T01:02:34;15.67;;;10.13;;
15102;SDS011;7652;53.584;9.998;2023-02-08T01:05:38;18.97;;;10.67;;
15102;SDS011;7652;53.584;9.998;2023-02-08T01:08:42;16.17;;;10.43;;
15102;SDS011;7652;53.584;9.998;2023-02-08T01:11:45;17.50;;;9.90;;
15102;SDS011;7652;53.584;9.998;2023-02-08T01:14:48;16.60;;;10.57;;
15102;SDS011;7652;53.584;9.998;2023-02-08T01:17:54;15.17;;;9.87;;
15102;SDS011;7652;53.584;9.998;2023-02-08T01:21:02;16.53;;;9.93;;
15102;SDS011;7652;53.584;9.998;2023-02-08T01:24:06;15.33;;;9.37;;
15102;SDS011;7652;53.584;9.998;2023-02-08T01:27:09;15.33;;;10.17;;
15102;SDS011;7652;53.584;9.998;2023-02-08T01:30:12;13.30;;;9.00;;
15102;SDS011;7652;53.584;9.998;2023-02-08T01:33:16;15.43;;;9.97;;
15102;SDS011;7652;53.584;9.998;2023-02-08T01:36:19;18.07;;;9.80;;
15102;SDS011;7652;53.584;9.998;2023-02-08T01:39:23;16.63;;;9.70;;
15102;SDS011;7652;53.584;9.998;2023-02-08T01:42:26;17.63;;;10.53;;
15102;SDS011;7652;53.584;9.998;2023-02-08T01:45:30;18.17;;;10.80;;
15102;SDS011;7652;53.584;9.998;2023-02-08T01:48:36;18.10;;;10.23;;
15102;SDS011;7652;53.584;9.998;2023-02-08T01:51:43;17.33;;;10.43;;
15102;SDS011;7652;53.584;9.998;2023-02-08T01:54:50;18.93;;;10.53;;
15102;SDS011;7652;53.584;9.998;2023-02-08T01:57:55;16.53;;;10.63;;
15102;SDS011;7652;53.584;9.998;2023-02-08T02:01:02;19.60;;;10.13;;
15102;SDS011;7652;53.584;9.998;2023-02-08T02:04:07;15.70;;;10.47;;
15102;SDS011;7652;53.584;9.998;2023-02-08T02:07:10;14.90;;;9.83;;
15102;SDS011;7652;53.584;9.998;2023-02-08T02:10:15;19.40;;;9.90;;
15102;SDS011;7652;53.584;9.998;2023-02-08T02:13:24;19.67;;;10.60;;
15102;SDS011;7652;53.584;9.998;2023-02-08T02:16:28;16.97;;;10.03;;
15102;SDS011;7652;53.584;9.998;2023-02-08T02:19:35;17.87;;;10.53;;
15102;SDS011;7652;53.584;9.998;2023-02-08T02:26:28;16.70;;;10.70;;
15102;SDS011;7652;53.584;9.998;2023-02-08T02:30:02;17.80;;;10.30;;
15102;SDS011;7652;53.584;9.998;2023-02-08T02:33:32;18.53;;;10.70;;
15102;SDS011;7652;53.584;9.998;2023-02-08T02:36:43;19.90;;;10.73;;
15102;SDS011;7652;53.584;9.998;2023-02-08T02:39:53;19.57;;;10.90;;
15102;SDS011;7652;53.584;9.998;2023-02-08T02:43:05;21.83;;;11.20;;
15102;SDS011;7652;53.584;9.998;2023-02-08T02:46:34;19.27;;;10.47;;
15102;SDS011;7652;53.584;9.998;2023-02-08T02:49:46;20.53;;;11.47;;
15102;SDS011;7652;53.584;9.998;2023-02-08T02:52:55;18.80;;;11.00;;
15102;SDS011;7652;53.584;9.998;2023-02-08T02:56:02;17.77;;;10.63;;
15102;SDS011;7652;53.584;9.998;2023-02-08T02:59:11;22.60;;;12.70;;
15102;SDS011;7652;53.584;9.998;2023-02-08T03:02:16;19.03;;;11.80;;
15102;SDS011;7652;53.584;9.998;2023-02-08T03:05:21;17.47;;;10.47;;
15102;SDS011;7652;53.584;9.998;2023-02-08T03:08:31;20.77;;;10.73;;
15102;SDS011;7652;53.584;9.998;2023-02-08T03:11:47;16.90;;;10.73;;
15102;SDS011;7652;53.584;9.998;2023-02-08T03:14:56;23.50;;;11.70;;
15102;SDS011;7652;53.584;9.998;2023-02-08T03:18:11;17.27;;;10.93;;
15102;SDS011;7652;53.584;9.998;2023-02-08T03:21:25;16.23;;;10.87;;
15102;SDS011;7652;53.584;9.998;2023-02-08T03:24:37;23.73;;;12.70;;
15102;SDS011;7652;53.584;9.998;2023-02-08T03:27:48;19.17;;;11.63;;
15102;SDS011;7652;53.584;9.998;2023-02-08T03:30:57;19.17;;;11.97;;
15102;SDS011;7652;53.584;9.998;2023-02-08T03:34:06;17.17;;;10.57;;
15102;SDS011;7652;53.584;9.998;2023-02-08T03:37:15;21.07;;;11.47;;
15102;SDS011;7652;53.584;9.998;2023-02-08T03:40:23;18.83;;;11.13;;
15102;SDS011;7652;53.584;9.998;2023-02-08T03:43:30;17.50;;;11.57;;
15102;SDS011;7652;53.584;9.998;2023-02-08T03:46:39;19.23;;;10.80;;
15102;SDS011;7652;53.584;9.998;2023-02-08T03:49:45;19.97;;;12.17;;
15102;SDS011;7652;53.584;9.998;2023-02-08T03:52:53;21.20;;;11.37;;
15102;SDS011;7652;53.584;9.998;2023-02-08T03:55:59;20.17;;;11.70;;
15102;SDS011;7652;53.584;9.998;2023-02-08T03:59:06;21.73;;;12.03;;
15102;SDS011;7652;53.584;9.998;2023-02-08T04:02:15;19.33;;;11.30;;
15102;SDS011;7652;53.584;9.998;2023-02-08T04:05:21;23.47;;;12.83;;
15102;SDS011;7652;53.584;9.998;2023-02-08T04:08:26;20.13;;;11.23;;
15102;SDS011;7652;53.584;9.998;2023-02-08T04:11:29;23.30;;;12.67;;
15102;SDS011;7652;53.584;9.998;2023-02-08T04:14:32;21.30;;;12.43;;
15102;SDS011;7652;53.584;9.998;2023-02-08T04:17:35;22.83;;;12.07;;
15102;SDS011;7652;53.584;9.998;2023-02-08T04:20:38;21.10;;;11.00;;
15102;SDS011;7652;53.584;9.998;2023-02-08T04:23:43;19.33;;;11.30;;
15102;SDS011;7652;53.584;9.998;2023-02-08T04:26:46;21.80;;;11.70;;
15102;SDS011;7652;53.584;9.998;2023-02-08T04:29:49;20.83;;;11.70;;
15102;SDS011;7652;53.584;9.998;2023-02-08T04:32:52;22.63;;;12.33;;
15102;SDS011;7652;53.584;9.998;2023-02-08T04:35:55;23.70;;;12.70;;
15102;SDS011;7652;53.584;9.998;2023-02-08T04:38:59;20.53;;;11.77;;
15102;SDS011;7652;53.584;9.998;2023-02-08T04:42:02;21.60;;;11.83;;
15102;SDS011;7652;53.584;9.998;2023-02-08T04:45:05;21.20;;;11.93;;
15102;SDS011;7652;53.584;9.998;2023-02-08T04:48:09;20.83;;;11.93;;
15102;SDS011;7652;53.584;9.998;2023-02-08T04:51:12;21.97;;;11.47;;
15102;SDS011;7652;53.584;9.998;2023-02-08T04:54:16;18.80;;;10.97;;
15102;SDS011;7652;53.584;9.998;2023-02-08T04:57:19;21.83;;;12.47;;
15102;SDS011;7652;53.584;9.998;2023-02-08T05:00:22;23.03;;;12.97;;
15102;SDS011;7652;53.584;9.998;2023-02-08T05:03:25;23.67;;;11.67;;
15102;SDS011;7652;53.584;9.998;2023-02-08T05:06:28;24.13;;;12.63;;
15102;SDS011;7652;53.584;9.998;2023-02-08T05:09:33;22.97;;;12.93;;
15102;SDS011;7652;53.584;9.998;2023-02-08T05:12:36;24.30;;;12.90;;
15102;SDS011;7652;53.584;9.998;2023-02-08T05:15:39;26.13;;;13.13;;
15102;SDS011;7652;53.584;9.998;2023-02-08T05:18:42;28.33;;;13.67;;
15102;SDS011;7652;53.584;9.998;2023-02-08T05:21:46;23.30;;;12.80;;
15102;SDS011;7652;53.584;9.998;2023-02-08T05:24:50;26.30;;;14.27;;
15102;SDS011;7652;53.584;9.998;2023-02-08T05:27:53;25.37;;;12.90;;
15102;SDS011;7652;53.584;9.998;2023-02-08T05:30:56;25.30;;;13.37;;
15102;SDS011;7652;53.584;9.998;2023-02-08T05:33:59;25.27;;;13.13;;
15102;SDS011;7652;53.584;9.998;2023-02-08T05:37:02;22.33;;;12.90;;
15102;SDS011;7652;53.584;9.998;2023-02-08T05:40:07;27.73;;;13.90;;
15102;SDS011;7652;53.584;9.998;2023-02-08T05:43:13;28.53;;;13.70;;
15102;SDS011;7652;53.584;9.998;2023-02-08T05:46:16;28.23;;;14.50;;
15102;SDS011;7652;53.584;9.998;2023-02-08T05:49:19;26.20;;;14.67;;
15102;SDS011;7652;53.584;9.998;2023-02-08T05:52:22;27.43;;;13.37;;
15102;SDS011;7652;53.584;9.998;2023-02-08T05:55:26;26.90;;;14.23;;
15102;SDS011;7652;53.584;9.998;2023-02-08T05:58:30;27.10;;;13.30;;
15102;SDS011;7652;53.584;9.998;2023-02-08T06:01:33;26.37;;;13.40;;
15102;SDS011;7652;53.584;9.998;2023-02-08T06:04:36;29.33;;;14.07;;
15102;SDS011;7652;53.584;9.998;2023-02-08T06:07:39;26.93;;;14.00;;
15102;SDS011;7652;53.584;9.998;2023-02-08T06:10:44;24.50;;;13.63;;
15102;SDS011;7652;53.584;9.998;2023-02-08T06:13:50;25.90;;;14.10;;
15102;SDS011;7652;53.584;9.998;2023-02-08T06:16:53;27.00;;;13.13;;
15102;SDS011;7652;53.584;9.998;2023-02-08T06:19:56;28.20;;;14.37;;
15102;SDS011;7652;53.584;9.998;2023-02-08T06:22:59;27.67;;;14.23;;
15102;SDS011;7652;53.584;9.998;2023-02-08T06:26:04;27.97;;;14.20;;
15102;SDS011;7652;53.584;9.998;2023-02-08T06:29:07;28.10;;;14.27;;
15102;SDS011;7652;53.584;9.998;2023-02-08T06:32:10;31.20;;;15.27;;
15102;SDS011;7652;53.584;9.998;2023-02-08T06:35:14;28.10;;;14.83;;
15102;SDS011;7652;53.584;9.998;2023-02-08T06:38:17;29.83;;;14.27;;
15102;SDS011;7652;53.584;9.998;2023-02-08T06:41:22;30.33;;;14.37;;
15102;SDS011;7652;53.584;9.998;2023-02-08T06:44:25;26.63;;;13.70;;
15102;SDS011;7652;53.584;9.998;2023-02-08T06:47:28;30.67;;;14.30;;
15102;SDS011;7652;53.584;9.998;2023-02-08T06:50:31;26.80;;;14.70;;
15102;SDS011;7652;53.584;9.998;2023-02-08T06:53:34;30.37;;;14.70;;
15102;SDS011;7652;53.584;9.998;2023-02-08T06:56:38;28.80;;;14.13;;
15102;SDS011;7652;53.584;9.998;2023-02-08T06:59:41;29.40;;;14.63;;
15102;SDS011;7652;53.584;9.998;2023-02-08T07:02:44;24.43;;;13.33;;
15102;SDS011;7652;53.584;9.998;2023-02-08T07:05:47;26.43;;;14.30;;
15102;SDS011;7652;53.584;9.998;2023-02-08T07:09:05;25.57;;;14.10;;
15102;SDS011;7652;53.584;9.998;2023-02-08T07:12:10;29.77;;;13.63;;
15102;SDS011;7652;53.584;9.998;2023-02-08T07:15:13;28.63;;;15.10;;
15102;SDS011;7652;53.584;9.998;2023-02-08T07:18:16;26.23;;;13.97;;
15102;SDS011;7652;53.584;9.998;2023-02-08T07:21:19;36.20;;;14.90;;
15102;SDS011;7652;53.584;9.998;2023-02-08T07:24:23;29.80;;;14.90;;
15102;SDS011;7652;53.584;9.998;2023-02-08T07:27:27;30.30;;;14.60;;
15102;SDS011;7652;53.584;9.998;2023-02-08T07:30:30;26.57;;;14.83;;
15102;SDS011;7652;53.584;9.998;2023-02-08T07:33:33;26.70;;;14.80;;
15102;SDS011;7652;53.584;9.998;2023-02-08T07:36:36;31.20;;;15.40;;
15102;SDS011;7652;53.584;9.998;2023-02-08T07:39:39;31.70;;;15.20;;
15102;SDS011;7652;53.584;9.998;2023-02-08T07:42:44;33.67;;;15.63;;
15102;SDS011;7652;53.584;9.998;2023-02-08T07:45:47;32.80;;;15.80;;
15102;SDS011;7652;53.584;9.998;2023-02-08T07:48:50;31.60;;;15.37;;
15102;SDS011;7652;53.584;9.998;2023-02-08T07:51:53;27.33;;;15.47;;
15102;SDS011;7652;53.584;9.998;2023-02-08T07:54:57;37.73;;;16.00;;
15102;SDS011;7652;53.584;9.998;2023-02-08T07:58:01;35.53;;;16.10;;
15102;SDS011;7652;53.584;9.998;2023-02-08T08:01:04;30.70;;;15.57;;
15102;SDS011;7652;53.584;9.998;2023-02-08T08:04:22;34.00;;;15.87;;
15102;SDS011;7652;53.584;9.998;2023-02-08T08:07:25;33.77;;;16.30;;
15102;SDS011;7652;53.584;9.998;2023-02-08T08:10:28;30.80;;;15.67;;
15102;SDS011;7652;53.584;9.998;2023-02-08T08:13:32;31.47;;;15.10;;
15102;SDS011;7652;53.584;9.998;2023-02-08T08:16:35;31.33;;;15.47;;
15102;SDS011;7652;53.584;9.998;2023-02-08T08:19:38;30.53;;;15.03;;
15102;SDS011;7652;53.584;9.998;2023-02-08T08:22:41;31.43;;;15.63;;
15102;SDS011;7652;53.584;9.998;2023-02-08T08:25:44;29.73;;;15.17;;
15102;SDS011;7652;53.584;9.998;2023-02-08T08:28:49;30.30;;;15.73;;
15102;SDS011;7652;53.584;9.998;2023-02-08T08:31:52;34.43;;;16.77;;
15102;SDS011;7652;53.584;9.998;2023-02-08T08:34:55;30.87;;;16.17;;
15102;SDS011;7652;53.584;9.998;2023-02-08T08:37:58;29.40;;;14.83;;
15102;SDS011;7652;53.584;9.998;2023-02-08T08:41:05;28.77;;;15.60;;
15102;SDS011;7652;53.584;9.998;2023-02-08T08:44:10;32.77;;;15.90;;
15102;SDS011;7652;53.584;9.998;2023-02-08T08:47:13;30.07;;;15.97;;
15102;SDS011;7652;53.584;9.998;2023-02-08T08:50:16;31.83;;;17.37;;
15102;SDS011;7652;53.584;9.998;2023-02-08T08:53:19;31.07;;;17.13;;
15102;SDS011;7652;53.584;9.998;2023-02-08T08:56:22;28.63;;;16.20;;
15102;SDS011;7652;53.584;9.998;2023-02-08T08:59:26;32.13;;;16.77;;
15102;SDS011;7652;53.584;9.998;2023-02-08T09:02:29;29.97;;;16.30;;
15102;SDS011;7652;53.584;9.998;2023-02-08T09:05:33;33.87;;;16.73;;
15102;SDS011;7652;53.584;9.998;2023-02-08T09:08:36;38.23;;;17.63;;
15102;SDS011;7652;53.584;9.998;2023-02-08T09:11:39;30.80;;;16.37;;
15102;SDS011;7652;53.584;9.998;2023-02-08T09:14:44;30.50;;;15.60;;
15102;SDS011;7652;53.584;9.998;2023-02-08T09:17:47;28.77;;;15.77;;
15102;SDS011;7652;53.584;9.998;2023-02-08T09:20:50;30.17;;;15.80;;
15102;SDS011;7652;53.584;9.998;2023-02-08T09:23:53;29.27;;;15.37;;
15102;SDS011;7652;53.584;9.998;2023-02-08T09:26:56;32.03;;;16.10;;
15102;SDS011;7652;53.584;9.998;2023-02-08T09:30:00;28.63;;;16.13;;
15102;SDS011;7652;53.584;9.998;2023-02-08T09:33:03;27.93;;;15.13;;
15102;SDS011;7652;53.584;9.998;2023-02-08T09:36:07;28.13;;;15.57;;
15102;SDS011;7652;53.584;9.998;2023-02-08T09:39:11;23.60;;;15.27;;
15102;SDS011;7652;53.584;9.998;2023-02-08T09:42:25;28.50;;;17.20;;
15102;SDS011;7652;53.584;9.998;2023-02-08T09:45:44;26.97;;;15.50;;
15102;SDS011;7652;53.584;9.998;2023-02-08T09:49:00;26.63;;;15.40;;
15102;SDS011;7652;53.584;9.998;2023-02-08T09:52:08;26.33;;;15.73;;
15102;SDS011;7652;53.584;9.998;2023-02-08T09:55:18;27.87;;;16.40;;
15102;SDS011;7652;53.584;9.998;2023-02-08T09:58:29;26.63;;;14.47;;
15102;SDS011;7652;53.584;9.998;2023-02-08T10:01:38;28.13;;;16.27;;
15102;SDS011;7652;53.584;9.998;2023-02-08T10:04:45;28.80;;;16.83;;
15102;SDS011;7652;53.584;9.998;2023-02-08T10:07:57;26.60;;;15.20;;
15102;SDS011;7652;53.584;9.998;2023-02-08T10:11:05;26.57;;;15.90;;
15102;SDS011;7652;53.584;9.998;2023-02-08T10:14:25;29.20;;;16.37;;
15102;SDS011;7652;53.584;9.998;2023-02-08T10:17:54;26.83;;;15.43;;
15102;SDS011;7652;53.584;9.998;2023-02-08T10:21:12;26.33;;;15.40;;
15102;SDS011;7652;53.584;9.998;2023-02-08T10:24:38;28.47;;;15.33;;
15102;SDS011;7652;53.584;9.998;2023-02-08T10:28:00;27.60;;;15.40;;
15102;SDS011;7652;53.584;9.998;2023-02-08T10:31:18;37.40;;;16.00;;
15102;SDS011;7652;53.584;9.998;2023-02-08T10:34:36;30.30;;;15.93;;
15102;SDS011;7652;53.584;9.998;2023-02-08T10:37:46;29.00;;;15.90;;
15102;SDS011;7652;53.584;9.998;2023-02-08T10:40:49;25.47;;;15.33;;
15102;SDS011;7652;53.584;9.998;2023-02-08T10:43:58;28.90;;;16.30;;
15102;SDS011;7652;53.584;9.998;2023-02-08T10:47:08;31.13;;;16.30;;
15102;SDS011;7652;53.584;9.998;2023-02-08T10:50:19;29.63;;;15.53;;
15102;SDS011;7652;53.584;9.998;2023-02-08T10:53:30;29.83;;;15.87;;
15102;SDS011;7652;53.584;9.998;2023-02-08T10:56:35;27.33;;;15.93;;
15102;SDS011;7652;53.584;9.998;2023-02-08T10:59:46;29.00;;;17.43;;
15102;SDS011;7652;53.584;9.998;2023-02-08T11:02:52;27.47;;;15.10;;
15102;SDS011;7652;53.584;9.998;2023-02-08T11:05:58;29.30;;;16.33;;
15102;SDS011;7652;53.584;9.998;2023-02-08T11:09:01;26.07;;;16.13;;
15102;SDS011;7652;53.584;9.998;2023-02-08T11:12:05;27.37;;;15.50;;
15102;SDS011;7652;53.584;9.998;2023-02-08T11:15:20;26.20;;;14.50;;
15102;SDS011;7652;53.584;9.998;2023-02-08T11:18:25;26.20;;;16.33;;
15102;SDS011;7652;53.584;9.998;2023-02-08T11:21:32;29.60;;;15.30;;
15102;SDS011;7652;53.584;9.998;2023-02-08T11:24:38;27.17;;;15.60;;
15102;SDS011;7652;53.584;9.998;2023-02-08T11:27:47;28.67;;;17.20;;
15102;SDS011;7652;53.584;9.998;2023-02-08T11:30:54;24.53;;;14.77;;
15102;SDS011;7652;53.584;9.998;2023-02-08T11:34:00;27.10;;;15.07;;
15102;SDS011;7652;53.584;9.998;2023-02-08T11:37:11;26.03;;;15.33;;
15102;SDS011;7652;53.584;9.998;2023-02-08T11:40:16;24.70;;;16.53;;
15102;SDS011;7652;53.584;9.998;2023-02-08T11:43:24;26.67;;;16.20;;
15102;SDS011;7652;53.584;9.998;2023-02-08T11:46:29;28.60;;;16.23;;
15102;SDS011;7652;53.584;9.998;2023-02-08T11:49:36;33.17;;;17.37;;
15102;SDS011;7652;53.584;9.998;2023-02-08T11:52:43;29.17;;;17.47;;
15102;SDS011;7652;53.584;9.998;2023-02-08T11:56:01;25.07;;;16.90;;
15102;SDS011;7652;53.584;9.998;2023-02-08T11:59:16;28.63;;;17.13;;
15102;SDS011;7652;53.584;9.998;2023-02-08T12:02:26;28.47;;;17.13;;
15102;SDS011;7652;53.584;9.998;2023-02-08T12:05:34;29.70;;;16.37;;
15102;SDS011;7652;53.584;9.998;2023-02-08T12:08:48;24.47;;;15.70;;
15102;SDS011;7652;53.584;9.998;2023-02-08T12:12:00;26.40;;;16.40;;
15102;SDS011;7652;53.584;9.998;2023-02-08T12:15:11;24.27;;;15.40;;
15102;SDS011;7652;53.584;9.998;2023-02-08T12:18:26;24.00;;;14.90;;
15102;SDS011;7652;53.584;9.998;2023-02-08T12:21:42;22.63;;;14.90;;
15102;SDS011;7652;53.584;9.998;2023-02-08T12:24:48;25.93;;;14.87;;
15102;SDS011;7652;53.584;9.998;2023-02-08T12:27:53;22.20;;;13.77;;
15102;SDS011;7652;53.584;9.998;2023-02-08T12:31:05;23.20;;;14.23;;
15102;SDS011;7652;53.584;9.998;2023-02-08T12:34:16;23.93;;;14.30;;
15102;SDS011;7652;53.584;9.998;2023-02-08T12:37:26;23.83;;;14.43;;
15102;SDS011;7652;53.584;9.998;2023-02-08T12:40:56;20.63;;;13.10;;
15102;SDS011;7652;53.584;9.998;2023-02-08T12:44:10;20.70;;;13.30;;
15102;SDS011;7652;53.584;9.998;2023-02-08T12:47:25;19.23;;;12.90;;
15102;SDS011;7652;53.584;9.998;2023-02-08T12:50:38;22.37;;;13.53;;
15102;SDS011;7652;53.584;9.998;2023-02-08T12:53:46;20.43;;;12.70;;
15102;SDS011;7652;53.584;9.998;2023-02-08T12:56:54;20.03;;;12.93;;
15102;SDS011;7652;53.584;9.998;2023-02-08T13:00:04;20.40;;;12.60;;
15102;SDS011;7652;53.584;9.998;2023-02-08T13:03:12;18.63;;;12.00;;
15102;SDS011;7652;53.584;9.998;2023-02-08T13:06:23;20.10;;;12.87;;
15102;SDS011;7652;53.584;9.998;2023-02-08T13:09:34;19.40;;;12.00;;
15102;SDS011;7652;53.584;9.998;2023-02-08T13:12:46;19.10;;;11.90;;
15102;SDS011;7652;53.584;9.998;2023-02-08T13:15:55;18.63;;;11.13;;
15102;SDS011;7652;53.584;9.998;2023-02-08T13:19:06;18.90;;;11.70;;
15102;SDS011;7652;53.584;9.998;2023-02-08T13:22:23;16.40;;;10.50;;
15102;SDS011;7652;53.584;9.998;2023-02-08T13:25:28;17.37;;;11.10;;
15102;SDS011;7652;53.584;9.998;2023-02-08T13:28:34;19.80;;;11.40;;
15102;SDS011;7652;53.584;9.998;2023-02-08T13:31:37;18.57;;;12.40;;
15102;SDS011;7652;53.584;9.998;2023-02-08T13:34:44;17.80;;;10.83;;
15102;SDS011;7652;53.584;9.998;2023-02-08T13:37:51;18.53;;;11.27;;
15102;SDS011;7652;53.584;9.998;2023-02-08T13:41:04;14.70;;;10.60;;
15102;SDS011;7652;53.584;9.998;2023-02-08T13:44:16;16.30;;;10.40;;
15102;SDS011;7652;53.584;9.998;2023-02-08T13:47:22;14.60;;;8.87;;
15102;SDS011;7652;53.584;9.998;2023-02-08T13:50:39;13.70;;;10.07;;
15102;SDS011;7652;53.584;9.998;2023-02-08T13:54:04;15.43;;;10.07;;
15102;SDS011;7652;53.584;9.998;2023-02-08T14:01:04;16.60;;;8.67;;
15102;SDS011;7652;53.584;9.998;2023-02-08T14:04:28;13.60;;;8.73;;
15102;SDS011;7652;53.584;9.998;2023-02-08T14:07:39;15.73;;;9.67;;
15102;SDS011;7652;53.584;9.998;2023-02-08T14:10:45;16.63;;;8.93;;
15102;SDS011;7652;53.584;9.998;2023-02-08T14:14:02;17.33;;;8.97;;
15102;SDS011;7652;53.584;9.998;2023-02-08T14:17:13;12.63;;;7.93;;
15102;SDS011;7652;53.584;9.998;2023-02-08T14:20:21;14.70;;;8.63;;
15102;SDS011;7652;53.584;9.998;2023-02-08T14:23:28;13.87;;;8.10;;
15102;SDS011;7652;53.584;9.998;2023-02-08T14:26:32;13.97;;;8.10;;
15102;SDS011;7652;53.584;9.998;2023-02-08T14:29:37;15.63;;;8.67;;
15102;SDS011;7652;53.584;9.998;2023-02-08T14:32:42;15.33;;;8.60;;
15102;SDS011;7652;53.584;9.998;2023-02-08T14:35:51;14.43;;;8.30;;
15102;SDS011;7652;53.584;9.998;2023-02-08T14:39:05;14.97;;;9.60;;
15102;SDS011;7652;53.584;9.998;2023-02-08T14:45:55;16.33;;;8.17;;
15102;SDS011;7652;53.584;9.998;2023-02-08T14:49:00;16.20;;;8.20;;
15102;SDS011;7652;53.584;9.998;2023-02-08T14:52:08;16.60;;;8.43;;
15102;SDS011;7652;53.584;9.998;2023-02-08T14:55:15;16.77;;;8.60;;
15102;SDS011;7652;53.584;9.998;2023-02-08T14:58:27;18.77;;;8.53;;
15102;SDS011;7652;53.584;9.998;2023-02-08T15:01:35;13.87;;;8.17;;
15102;SDS011;7652;53.584;9.998;2023-02-08T15:04:46;13.40;;;7.73;;
15102;SDS011;7652;53.584;9.998;2023-02-08T15:07:50;22.57;;;8.63;;
15102;SDS011;7652;53.584;9.998;2023-02-08T15:10:56;16.27;;;8.60;;
15102;SDS011;7652;53.584;9.998;2023-02-08T15:14:00;12.97;;;8.03;;
15102;SDS011;7652;53.584;9.998;2023-02-08T15:17:06;15.40;;;8.03;;
15102;SDS011;7652;53.584;9.998;2023-02-08T15:20:23;19.27;;;9.03;;
15102;SDS011;7652;53.584;9.998;2023-02-08T15:23:28;14.07;;;8.37;;
15102;SDS011;7652;53.584;9.998;2023-02-08T15:26:32;15.10;;;8.43;;
15102;SDS011;7652;53.584;9.998;2023-02-08T15:29:39;16.03;;;9.10;;
15102;SDS011;7652;53.584;9.998;2023-02-08T15:32:45;19.80;;;9.40;;
15102;SDS011;7652;53.584;9.998;2023-02-08T15:35:55;16.07;;;9.23;;
15102;SDS011;7652;53.584;9.998;2023-02-08T15:39:00;17.27;;;8.90;;
15102;SDS011;7652;53.584;9.998;2023-02-08T15:42:14;19.57;;;10.77;;
15102;SDS011;7652;53.584;9.998;2023-02-08T15:45:22;20.93;;;9.53;;
15102;SDS011;7652;53.584;9.998;2023-02-08T15:48:26;18.57;;;8.47;;
15102;SDS011;7652;53.584;9.998;2023-02-08T15:51:31;14.90;;;8.53;;
15102;SDS011;7652;53.584;9.998;2023-02-08T15:54:34;15.50;;;9.57;;
15102;SDS011;7652;53.584;9.998;2023-02-08T15:57:38;16.83;;;8.77;;
15102;SDS011;7652;53.584;9.998;2023-02-08T16:00:45;19.80;;;8.87;;
15102;SDS011;7652;53.584;9.998;2023-02-08T16:03:49;20.17;;;8.80;;
15102;SDS011;7652;53.584;9.998;2023-02-08T16:06:57;18.23;;;9.37;;
15102;SDS011;7652;53.584;9.998;2023-02-08T16:10:01;19.57;;;9.10;;
15102;SDS011;7652;53.584;9.998;2023-02-08T16:13:05;16.53;;;8.77;;
15102;SDS011;7652;53.584;9.998;2023-02-08T16:16:17;17.47;;;9.17;;
15102;SDS011;7652;53.584;9.998;2023-02-08T16:19:23;15.60;;;8.43;;
15102;SDS011;7652;53.584;9.998;2023-02-08T16:22:30;17.70;;;9.07;;
15102;SDS011;7652;53.584;9.998;2023-02-08T16:25:36;13.23;;;8.37;;
15102;SDS011;7652;53.584;9.998;2023-02-08T16:28:50;16.37;;;8.93;;
15102;SDS011;7652;53.584;9.998;2023-02-08T16:31:59;14.10;;;8.33;;
15102;SDS011;7652;53.584;9.998;2023-02-08T16:35:14;22.03;;;9.10;;
15102;SDS011;7652;53.584;9.998;2023-02-08T16:38:24;15.20;;;8.00;;
15102;SDS011;7652;53.584;9.998;2023-02-08T16:41:39;19.70;;;8.57;;
15102;SDS011;7652;53.584;9.998;2023-02-08T16:45:17;14.87;;;8.00;;
15102;SDS011;7652;53.584;9.998;2023-02-08T16:48:26;16.10;;;9.27;;
15102;SDS011;7652;53.584;9.998;2023-02-08T16:51:33;15.33;;;8.87;;
15102;SDS011;7652;53.584;9.998;2023-02-08T16:54:41;18.20;;;9.60;;
15102;SDS011;7652;53.584;9.998;2023-02-08T16:57:45;18.47;;;9.80;;
15102;SDS011;7652;53.584;9.998;2023-02-08T17:00:49;18.97;;;9.57;;
15102;SDS011;7652;53.584;9.998;2023-02-08T17:03:52;16.23;;;10.27;;
15102;SDS011;7652;53.584;9.998;2023-02-08T17:06:55;16.73;;;10.30;;
15102;SDS011;7652;53.584;9.998;2023-02-08T17:10:00;18.10;;;9.50;;
15102;SDS011;7652;53.584;9.998;2023-02-08T17:13:03;18.40;;;9.87;;
15102;SDS011;7652;53.584;9.998;2023-02-08T17:16:20;18.13;;;10.30;;
15102;SDS011;7652;53.584;9.998;2023-02-08T17:19:25;16.93;;;9.67;;
15102;SDS011;7652;53.584;9.998;2023-02-08T17:22:28;17.43;;;10.03;;
15102;SDS011;7652;53.584;9.998;2023-02-08T17:25:33;19.00;;;9.90;;
15102;SDS011;7652;53.584;9.998;2023-02-08T17:28:36;16.57;;;9.30;;
15102;SDS011;7652;53.584;9.998;2023-02-08T17:31:39;15.93;;;9.93;;
15102;SDS011;7652;53.584;9.998;2023-02-08T17:34:42;20.40;;;10.17;;
15102;SDS011;7652;53.584;9.998;2023-02-08T17:37:47;21.57;;;11.57;;
15102;SDS011;7652;53.584;9.998;2023-02-08T17:40:52;16.13;;;10.70;;
15102;SDS011;7652;53.584;9.998;2023-02-08T17:43:55;17.37;;;9.97;;
15102;SDS011;7652;53.584;9.998;2023-02-08T17:46:59;17.13;;;9.83;;
15102;SDS011;7652;53.584;9.998;2023-02-08T17:50:02;17.83;;;10.63;;
15102;SDS011;7652;53.584;9.998;2023-02-08T17:53:05;16.20;;;9.83;;
15102;SDS011;7652;53.584;9.998;2023-02-08T17:56:10;16.67;;;9.60;;
15102;SDS011;7652;53.584;9.998;2023-02-08T17:59:14;22.00;;;11.00;;
15102;SDS011;7652;53.584;9.998;2023-02-08T18:02:17;19.10;;;10.57;;
15102;SDS011;7652;53.584;9.998;2023-02-08T18:05:21;18.33;;;11.27;;
15102;SDS011;7652;53.584;9.998;2023-02-08T18:08:26;18.50;;;10.73;;
15102;SDS011;7652;53.584;9.998;2023-02-08T18:11:30;21.00;;;11.30;;
15102;SDS011;7652;53.584;9.998;2023-02-08T18:14:35;21.73;;;10.67;;
15102;SDS011;7652;53.584;9.998;2023-02-08T18:17:38;21.77;;;12.13;;
15102;SDS011;7652;53.584;9.998;2023-02-08T18:20:42;22.60;;;11.63;;
15102;SDS011;7652;53.584;9.998;2023-02-08T18:23:46;23.47;;;12.50;;
15102;SDS011;7652;53.584;9.998;2023-02-08T18:26:51;21.33;;;13.03;;
15102;SDS011;7652;53.584;9.998;2023-02-08T18:29:54;24.20;;;13.07;;
15102;SDS011;7652;53.584;9.998;2023-02-08T18:32:57;23.13;;;12.60;;
15102;SDS011;7652;53.584;9.998;2023-02-08T18:36:00;25.57;;;13.00;;
15102;SDS011;7652;53.584;9.998;2023-02-08T18:39:03;23.87;;;13.47;;
15102;SDS011;7652;53.584;9.998;2023-02-08T18:42:07;22.60;;;13.13;;
15102;SDS011;7652;53.584;9.998;2023-02-08T18:45:12;24.27;;;13.10;;